Portada
METAR-TAF:

METAR-TAF

Aeroports :

Alpnach, Suïssa

latitud: 46-56-19N, longitud: 8-17-03E, altitud: 440 m

Observació

L'informe es va fer fa 35 minuts, a les 06:50 UTC
Vent 1 kt amb direcció variable
Temperatura 3°C
Humitat 87%
Pressió 1003 hPa
Visibilitat 10 km o més
Cel cobert a una alçada de 4000 ft

METAR: LSMA 260650Z VRB01KT 9999 OVC040 03/01 Q1003 RMK BLU

Hora: 08:25 (07:25 UTC)


TAF: manca

Observacions i pronòstics meteorològics de més de 4000 aeroports (METAR i TAF).

Les estacions disponibles són els punts grocs i vermells al mapa.

Posi el ratolí al punt desitjat per veure el nom de l'estació.

Feu clic per veure les observacions i els pronòstics meteorològics.

Per canviar el mapa: feu clic els botons verds amb una creu de color negre per apropar; al botó verd amb un guió per allunyar la imatge; o en les fletxes verdes per a mapes adjacents.


METAR-TAF: